createdAt,value
2022-09-05T00:01:10.988Z,5
2022-09-05T00:03:12.667Z,4.5
2022-09-05T00:05:14.007Z,3.7
2022-09-05T00:07:31.127Z,5.1
2022-09-05T00:09:17.036Z,4.7
2022-09-05T00:11:41.105Z,5.5
2022-09-05T00:13:23.422Z,4.6
2022-09-05T00:15:24.856Z,6
2022-09-05T00:20:40.781Z,6.5
2022-09-05T00:24:19.519Z,6.2
2022-09-05T00:24:25.044Z,5.7
2022-09-05T00:24:27.975Z,4.2
2022-09-05T00:25:57.189Z,4
2022-09-05T00:27:58.685Z,5.3
2022-09-05T00:31:05.738Z,3.6
2022-09-05T00:32:01.786Z,4.6
2022-09-05T00:34:03.203Z,4.7
2022-09-05T00:36:04.739Z,5.6
2022-09-05T00:38:09.539Z,5
2022-09-05T00:40:18.617Z,6.3
2022-09-05T00:42:12.544Z,5.3
2022-09-05T00:44:14.019Z,4.6
2022-09-05T00:46:15.604Z,4.7
2022-09-05T00:48:17.037Z,4.8
2022-09-05T00:52:23.343Z,3.5
2022-09-05T00:54:26.828Z,4.6
2022-09-05T00:56:26.359Z,4.8
2022-09-05T00:58:27.847Z,3.7
2022-09-05T01:00:29.377Z,4
2022-09-05T01:02:30.991Z,3.9
2022-09-05T01:04:32.377Z,4
2022-09-05T01:06:37.179Z,5.1
2022-09-05T01:08:38.692Z,4.5
2022-09-05T01:13:44.096Z,4.7
2022-09-05T01:15:45.687Z,4.8
2022-09-05T01:19:51.937Z,5.4
2022-09-05T01:21:53.444Z,5.3
2022-09-05T01:23:54.937Z,5.7
2022-09-05T01:25:56.972Z,5.4
2022-09-05T01:29:13.762Z,6
2022-09-05T01:29:59.526Z,5.9
2022-09-05T01:32:01.045Z,5.7
2022-09-05T01:34:05.825Z,5.4
2022-09-05T01:36:07.332Z,5.8
2022-09-05T01:38:08.865Z,5.5
2022-09-05T01:40:14.756Z,5
2022-09-05T01:42:11.867Z,5.1
2022-09-05T01:44:13.373Z,5.5
2022-09-05T01:46:14.934Z,5.7
2022-09-05T01:48:19.718Z,5.7
2022-09-05T01:50:21.228Z,6.4
2022-09-05T01:52:22.728Z,5.1
2022-09-05T01:54:26.560Z,5.8
2022-09-05T01:56:25.781Z,4.5
2022-09-05T02:06:36.622Z,6.5
2022-09-05T02:07:39.001Z,7.2
2022-09-05T02:09:40.550Z,5.6
2022-09-05T02:11:42.035Z,5.5
2022-09-05T02:13:43.538Z,6.2
2022-09-05T02:16:00.003Z,6.6
2022-09-05T02:17:51.654Z,6.8
2022-09-05T02:19:51.384Z,7.6
2022-09-05T02:21:57.106Z,6.4
2022-09-05T02:23:54.451Z,6.8
2022-09-05T02:26:02.382Z,7.1
2022-09-05T02:28:05.891Z,6.4
2022-09-05T02:30:02.420Z,6.4
2022-09-05T02:32:03.799Z,7.3
2022-09-05T02:34:05.348Z,7.4
2022-09-05T02:36:06.866Z,8.4
2022-09-05T02:41:01.165Z,7.3
2022-09-05T02:45:11.750Z,7.4
2022-09-05T02:45:15.331Z,8.4
2022-09-05T02:46:17.828Z,7.8
2022-09-05T02:48:19.268Z,7.4
2022-09-05T02:54:12.906Z,6.8
2022-09-05T02:57:25.099Z,8.2
2022-09-05T02:57:38.172Z,6.4
2022-09-05T02:57:39.946Z,8
2022-09-05T02:58:47.892Z,7.4
2022-09-05T03:00:31.618Z,6.8
2022-09-05T03:02:33.153Z,7.8
2022-09-05T03:03:35.741Z,8.3
2022-09-05T03:05:37.057Z,8.8
2022-09-05T03:09:41.602Z,8.2
2022-09-05T03:11:46.457Z,9.2
2022-09-05T03:13:48.883Z,8.4
2022-09-05T03:15:49.469Z,8.2
2022-09-05T03:17:50.974Z,6.6
2022-09-05T03:19:52.480Z,7.9
2022-09-05T03:21:54.005Z,5.8
2022-09-05T03:23:55.518Z,6.8
2022-09-05T03:26:00.360Z,5.7
2022-09-05T03:28:01.859Z,6.3
2022-09-05T03:30:03.394Z,6.4
2022-09-05T03:32:04.899Z,6.8
2022-09-05T03:34:06.405Z,6.9
2022-09-05T03:36:07.922Z,5.9
2022-09-05T03:38:09.436Z,6.1
2022-09-05T03:40:16.035Z,6.5
2022-09-05T03:42:15.763Z,8.1
2022-09-05T03:44:17.269Z,7.6
2022-09-05T03:46:18.828Z,8.1
2022-09-05T03:48:27.952Z,5.7
2022-09-05T03:55:57.281Z,7.5
2022-09-05T03:57:12.858Z,8.2
2022-09-05T03:57:13.504Z,10.2
2022-09-05T03:57:16.381Z,8.7
2022-09-05T03:58:55.474Z,8.9
2022-09-05T04:00:54.181Z,10.6
2022-09-05T04:07:12.019Z,10.5
2022-09-05T04:08:19.031Z,10.6
2022-09-05T04:08:28.481Z,11.1
2022-09-05T04:09:03.587Z,7.9
2022-09-05T04:11:04.951Z,9.7
2022-09-05T04:13:06.440Z,8.8
2022-09-05T04:15:08.005Z,8.6
2022-09-05T04:17:09.523Z,9.3
2022-09-05T04:21:15.802Z,10.3
2022-09-05T04:23:17.311Z,10.1
2022-09-05T04:25:18.806Z,11.4
2022-09-05T04:27:20.311Z,11.7
2022-09-05T04:29:21.816Z,13.3
2022-09-05T04:31:23.386Z,13
2022-09-05T04:33:36.312Z,11.7
2022-09-05T04:37:47.616Z,11.1
2022-09-05T04:39:32.790Z,11
2022-09-05T04:41:37.780Z,10.4
2022-09-05T04:43:35.664Z,9
2022-09-05T04:45:37.280Z,9.5
2022-09-05T04:47:39.458Z,10.5
2022-09-05T04:49:44.274Z,8.9
2022-09-05T04:51:45.024Z,9.5
2022-09-05T04:53:46.568Z,9.2
2022-09-05T04:54:48.934Z,9
2022-09-05T04:56:50.431Z,8.5
2022-09-05T04:59:38.967Z,9.3
2022-09-05T05:06:04.051Z,10.8
2022-09-05T05:06:17.342Z,12.5
2022-09-05T05:06:17.548Z,11.4
2022-09-05T05:07:07.802Z,10.9
2022-09-05T05:09:02.817Z,10.5
2022-09-05T05:13:00.712Z,10.7
2022-09-05T05:18:01.368Z,10.7
2022-09-05T05:18:03.223Z,10.8
2022-09-05T05:18:14.680Z,11.7
2022-09-05T05:19:18.719Z,13.1
2022-09-05T05:21:09.400Z,13.6
2022-09-05T05:23:10.837Z,17.3
2022-09-05T05:25:12.336Z,19.2
2022-09-05T05:27:13.901Z,16.6
2022-09-05T05:29:19.420Z,21.3
2022-09-05T05:31:20.269Z,21.4
2022-09-05T05:33:21.771Z,18.1
2022-09-05T05:35:23.268Z,19.6
2022-09-05T05:37:24.785Z,19.1
2022-09-05T05:39:26.355Z,25.5
2022-09-05T05:41:27.797Z,27.2
2022-09-05T05:43:29.306Z,27.4
2022-09-05T05:45:34.117Z,32.5
2022-09-05T05:47:35.638Z,27.4
2022-09-05T05:49:37.130Z,31.6
2022-09-05T05:50:39.526Z,31.4
2022-09-05T05:54:42.524Z,32.9
2022-09-05T05:56:44.047Z,30.6
2022-09-05T05:58:48.843Z,33.7
2022-09-05T06:00:51.366Z,33.6
2022-09-05T06:03:24.806Z,33
2022-09-05T06:04:53.369Z,31.5
2022-09-05T06:06:54.880Z,31.1
2022-09-05T06:19:07.156Z,22.6
2022-09-05T06:22:09.279Z,21.8
2022-09-05T06:23:10.635Z,21.4
2022-09-05T06:25:16.923Z,21.3
2022-09-05T06:27:16.417Z,18.9
2022-09-05T06:29:17.872Z,18.6
2022-09-05T06:31:30.085Z,18.4
2022-09-05T06:33:20.948Z,14.9
2022-09-05T06:35:22.336Z,16.9
2022-09-05T06:37:23.826Z,16.8
2022-09-05T06:41:30.055Z,18.5
2022-09-05T06:50:53.222Z,20.9
2022-09-05T06:52:39.488Z,17.8
2022-09-05T06:54:47.229Z,17.9
2022-09-05T07:00:48.299Z,17
2022-09-05T07:02:59.960Z,17.7
2022-09-05T07:08:57.019Z,17.2
2022-09-05T07:11:11.270Z,15.7
2022-09-05T07:12:59.730Z,17
2022-09-05T07:21:17.751Z,14.4
2022-09-05T07:23:47.795Z,15.3
2022-09-05T07:27:12.677Z,14.8
2022-09-05T07:29:13.689Z,12.1
2022-09-05T07:31:15.139Z,12.7
2022-09-05T07:33:16.221Z,12.5
2022-09-05T07:35:17.504Z,12.5
2022-09-05T07:37:22.107Z,13.6
2022-09-05T07:39:28.727Z,13.2
2022-09-05T07:41:24.649Z,12.6
2022-09-05T07:45:52.280Z,13.2
2022-09-05T07:47:49.785Z,12.6
2022-09-05T07:56:47.671Z,12.1
2022-09-05T07:57:00.913Z,12.2
2022-09-05T08:00:00.743Z,12.2
2022-09-05T08:02:02.023Z,11.9
2022-09-05T08:06:07.733Z,10.9
2022-09-05T08:08:08.956Z,12.1
2022-09-05T08:10:10.703Z,11.3
2022-09-05T08:12:11.425Z,9.2
2022-09-05T08:14:40.592Z,11.4
2022-09-05T08:16:14.238Z,10.7
2022-09-05T08:18:18.271Z,9.5
2022-09-05T08:20:19.519Z,8.8
2022-09-05T08:22:20.693Z,11
2022-09-05T08:24:21.904Z,8.6
2022-09-05T08:26:23.113Z,8.6
2022-09-05T08:28:24.358Z,7.4
2022-09-05T08:32:33.414Z,6.5
2022-09-05T08:34:44.221Z,6.4
2022-09-05T08:36:32.251Z,6.2
2022-09-05T08:37:34.458Z,5.8
2022-09-05T08:39:35.755Z,5.8
2022-09-05T08:41:51.309Z,4.2
2022-09-05T08:46:26.830Z,3.8
2022-09-05T08:46:42.599Z,4.6
2022-09-05T08:49:46.307Z,3.9
2022-09-05T08:51:50.430Z,3.1
2022-09-05T08:53:47.209Z,3.5
2022-09-05T08:55:48.129Z,3.5
2022-09-05T08:57:50.606Z,3.4
2022-09-05T09:02:46.051Z,2.6
2022-09-05T09:06:13.434Z,2.5
2022-09-05T09:07:59.299Z,2.5
2022-09-05T09:12:01.438Z,1.8
2022-09-05T09:16:06.900Z,2
2022-09-05T09:18:10.227Z,2
2022-09-05T09:20:08.923Z,2.4
2022-09-05T09:22:09.985Z,1.5
2022-09-05T09:24:11.039Z,1.8
2022-09-05T09:26:12.085Z,1.7
2022-09-05T09:28:45.299Z,1.6
2022-09-05T09:33:20.699Z,1.8
2022-09-05T09:35:21.733Z,1.9
2022-09-05T09:37:32.898Z,1.8
2022-09-05T09:39:38.028Z,1.3
2022-09-05T09:41:28.052Z,1.7
2022-09-05T09:43:29.118Z,1.8
2022-09-05T09:45:30.185Z,1.3
2022-09-05T09:47:31.145Z,1.5
2022-09-05T09:49:32.154Z,1.8
2022-09-05T09:51:33.182Z,1
2022-09-05T09:53:37.014Z,1.6
2022-09-05T09:57:39.496Z,1.4
2022-09-05T09:59:53.870Z,1.2
2022-09-05T10:01:41.544Z,1.2
2022-09-05T10:10:33.366Z,1
2022-09-05T10:10:53.743Z,1.4
2022-09-05T10:11:54.338Z,1
2022-09-05T10:13:50.662Z,1.8
2022-09-05T10:17:53.888Z,1.4
2022-09-05T10:20:10.919Z,1.2
2022-09-05T10:23:58.869Z,1.2
2022-09-05T10:26:01.579Z,1.6
2022-09-05T10:28:00.809Z,1.2
2022-09-05T10:29:17.036Z,1.1
2022-09-05T10:33:05.248Z,0.7
2022-09-05T10:37:10.123Z,1.2
2022-09-05T10:41:21.795Z,1.2
2022-09-05T10:43:13.026Z,1.1
2022-09-05T10:45:13.997Z,0.8
2022-09-05T10:47:15.010Z,1
2022-09-05T10:49:16.490Z,1
2022-09-05T10:51:27.899Z,0.8
2022-09-05T10:53:21.160Z,1.1
2022-09-05T10:57:23.097Z,1.3
2022-09-05T11:02:18.707Z,1.4
2022-09-05T11:02:27.746Z,1.3
2022-09-05T11:03:26.142Z,1.5
2022-09-05T11:05:30.333Z,1.1
2022-09-05T11:07:31.189Z,0.9
2022-09-05T11:09:32.170Z,1.2
2022-09-05T11:11:34.817Z,1
2022-09-05T11:13:34.089Z,1.3
2022-09-05T11:15:35.176Z,0.8
2022-09-05T11:17:36.074Z,0.9
2022-09-05T11:19:40.298Z,1.3
2022-09-05T11:21:41.279Z,1.3
2022-09-05T11:23:43.378Z,0.7
2022-09-05T11:26:02.388Z,1.4
2022-09-05T11:28:03.367Z,1.2
2022-09-05T11:30:04.298Z,0.9
2022-09-05T11:34:21.098Z,1.2
2022-09-05T11:39:56.069Z,1
2022-09-05T11:39:58.917Z,0.8
2022-09-05T11:40:00.280Z,0.7
2022-09-05T11:48:20.022Z,1.1
2022-09-05T11:50:20.466Z,2.5
2022-09-05T11:52:21.418Z,0.9
2022-09-05T11:54:22.428Z,0.8
2022-09-05T11:56:26.701Z,1.4
2022-09-05T11:58:45.306Z,1.2
2022-09-05T12:00:32.957Z,1.4
2022-09-05T12:02:29.544Z,0.8
2022-09-05T12:04:31.499Z,1.1
2022-09-05T12:08:32.425Z,1.2
2022-09-05T12:12:41.782Z,1.2
2022-09-05T12:14:42.465Z,1.5
2022-09-05T12:16:39.568Z,0.8
2022-09-05T12:18:40.475Z,1.1
2022-09-05T12:24:03.098Z,1.3
2022-09-05T12:27:41.392Z,1
2022-09-05T12:40:05.222Z,0.9
2022-09-05T12:41:38.939Z,1.7
2022-09-05T12:42:07.457Z,1.1
2022-09-05T12:44:38.823Z,1
2022-09-05T12:46:01.566Z,1
2022-09-05T12:48:02.526Z,1
2022-09-05T12:52:04.426Z,0.7
2022-09-05T12:56:38.729Z,0.9
2022-09-05T13:02:57.843Z,0.5
2022-09-05T13:03:04.204Z,0.7
2022-09-05T13:03:13.537Z,0.7
2022-09-05T13:04:18.503Z,0.6
2022-09-05T13:06:25.054Z,0.6
2022-09-05T13:08:15.163Z,0.8
2022-09-05T13:14:49.436Z,1
2022-09-05T13:14:50.749Z,0.8
2022-09-05T13:15:07.861Z,0.7
2022-09-05T13:17:24.219Z,0.6
2022-09-05T13:19:25.118Z,1.1
2022-09-05T13:21:26.028Z,0.7
2022-09-05T13:38:15.761Z,0.7
2022-09-05T13:38:19.333Z,0.6
2022-09-05T13:39:40.994Z,0.7
2022-09-05T13:41:41.778Z,0.9
2022-09-05T13:43:42.670Z,0.5
2022-09-05T13:45:43.695Z,1.2
2022-09-05T13:47:44.568Z,0.7
2022-09-05T13:49:45.505Z,0.9
2022-09-05T13:51:49.747Z,0.7
2022-09-05T13:53:50.667Z,0.7
2022-09-05T13:55:51.558Z,0.9
2022-09-05T13:57:52.458Z,0.8
2022-09-05T13:59:53.392Z,0.7
2022-09-05T14:02:24.589Z,0.8
2022-09-05T14:03:55.298Z,0.7
2022-09-05T14:05:59.496Z,0.7
2022-09-05T14:08:00.351Z,0.8
2022-09-05T14:10:01.587Z,0.8
2022-09-05T14:15:08.780Z,0.6
2022-09-05T14:19:10.319Z,0.7
2022-09-05T14:21:11.211Z,1
2022-09-05T14:23:12.115Z,0.6
2022-09-05T14:25:13.039Z,0.9
2022-09-05T14:27:13.967Z,0.7
2022-09-05T14:29:14.897Z,1
2022-09-05T14:36:16.570Z,0.7
2022-09-05T14:37:41.057Z,0.6
2022-09-05T14:37:46.366Z,1.1
2022-09-05T14:37:52.209Z,0.8
2022-09-05T14:39:22.850Z,0.9
2022-09-05T14:41:23.670Z,0.6
2022-09-05T14:43:27.029Z,0.8
2022-09-05T14:47:35.532Z,0.9
2022-09-05T14:49:33.828Z,1
2022-09-05T14:55:38.070Z,0.7
2022-09-05T15:02:38.237Z,0.6
2022-09-05T15:02:49.656Z,0.8
2022-09-05T15:02:50.080Z,1.2
2022-09-05T15:05:42.772Z,0.8
2022-09-05T15:12:27.839Z,0.5
2022-09-05T15:14:08.919Z,1.2
2022-09-05T15:16:09.867Z,0.6
2022-09-05T15:18:10.779Z,0.9
2022-09-05T15:20:11.724Z,0.6
2022-09-05T15:22:12.688Z,1
2022-09-05T15:24:14.416Z,0.8
2022-09-05T15:26:14.615Z,0.8
2022-09-05T15:28:18.862Z,0.9
2022-09-05T15:30:19.799Z,0.9
2022-09-05T15:32:20.756Z,1.3
2022-09-05T15:34:21.737Z,0.6
2022-09-05T15:36:22.729Z,1.4
2022-09-05T15:38:23.724Z,0.9
2022-09-05T15:40:24.708Z,0.8
2022-09-05T15:42:28.905Z,0.9
2022-09-05T15:44:29.888Z,0.4
2022-09-05T15:46:35.656Z,0.8
2022-09-05T15:48:34.104Z,0.8
2022-09-05T15:52:33.913Z,0.8
2022-09-05T15:54:38.435Z,0.8
2022-09-05T15:56:39.368Z,0.9
2022-09-05T15:58:53.865Z,1.4
2022-09-05T16:01:59.999Z,1.1
2022-09-05T16:08:29.399Z,1.1
2022-09-05T16:10:29.713Z,1.2
2022-09-05T16:10:39.234Z,0.8
2022-09-05T16:10:41.146Z,0.8
2022-09-05T16:12:13.856Z,0.9
2022-09-05T16:13:54.025Z,1.2
2022-09-05T16:21:51.311Z,0.7
2022-09-05T16:23:18.250Z,1.4
2022-09-05T16:23:25.849Z,0.8
2022-09-05T16:23:38.215Z,1
2022-09-05T16:24:05.675Z,0.8
2022-09-05T16:26:02.005Z,0.9
2022-09-05T16:30:04.082Z,0.6
2022-09-05T16:32:05.177Z,0.9
2022-09-05T16:34:08.391Z,0.9
2022-09-05T16:36:07.122Z,1.1
2022-09-05T16:38:11.466Z,0.9
2022-09-05T16:40:12.518Z,1.2
2022-09-05T16:42:13.523Z,1.3
2022-09-05T16:44:14.572Z,0.8
2022-09-05T16:46:15.727Z,1.4
2022-09-05T16:48:16.670Z,0.7
2022-09-05T16:50:17.717Z,1.2
2022-09-05T16:52:22.259Z,1.1
2022-09-05T16:54:23.110Z,1.4
2022-09-05T16:56:24.173Z,1.2
2022-09-05T16:57:26.362Z,0.9
2022-09-05T16:59:28.559Z,1.4
2022-09-05T17:01:28.622Z,1.2
2022-09-05T17:03:29.612Z,1.2
2022-09-05T17:07:35.082Z,1.3
2022-09-05T17:09:36.152Z,1.4
2022-09-05T17:11:38.140Z,1.4
2022-09-05T17:13:38.371Z,2.2
2022-09-05T17:15:39.509Z,1.5
2022-09-05T17:18:22.513Z,2.5
2022-09-05T17:20:03.211Z,1.3
2022-09-05T17:26:11.628Z,2
2022-09-05T17:29:17.405Z,2.6
2022-09-05T17:29:33.326Z,2.5
2022-09-05T17:31:23.728Z,2.3
2022-09-05T17:31:54.933Z,2
2022-09-05T17:33:56.237Z,2.1
2022-09-05T17:35:57.387Z,2
2022-09-05T17:38:04.311Z,2.4
2022-09-05T17:39:59.792Z,3.3
2022-09-05T17:42:00.918Z,2
2022-09-05T17:44:02.163Z,1.7
2022-09-05T17:46:03.379Z,2.2
2022-09-05T17:48:07.741Z,2.2
2022-09-05T17:50:08.929Z,1.8
2022-09-05T17:52:10.145Z,1.9
2022-09-05T17:55:13.585Z,3.2
2022-09-05T17:57:14.836Z,1.7
2022-09-05T17:59:16.044Z,2.1
2022-09-05T18:01:20.552Z,2.3
2022-09-05T18:03:21.760Z,2.2
2022-09-05T18:05:22.995Z,2.7
2022-09-05T18:07:24.228Z,2.3
2022-09-05T18:09:25.519Z,2.5
2022-09-05T18:11:26.841Z,1.8
2022-09-05T18:13:31.884Z,1.6
2022-09-05T18:17:35.947Z,1.9
2022-09-05T18:19:35.962Z,1.5
2022-09-05T18:21:36.660Z,1.5
2022-09-05T18:23:43.690Z,1.7
2022-09-05T18:28:03.783Z,1.4
2022-09-05T18:29:58.914Z,2.3
2022-09-05T18:33:55.418Z,2.3
2022-09-05T18:39:51.698Z,2.1
2022-09-05T18:45:58.823Z,1.7
2022-09-05T18:48:00.224Z,1.9
2022-09-05T18:50:26.639Z,2.5
2022-09-05T18:52:24.222Z,2.3
2022-09-05T18:54:25.500Z,2.7
2022-09-05T18:56:29.950Z,1.8
2022-09-05T18:58:34.630Z,2.1
2022-09-05T19:00:43.912Z,2.3
2022-09-05T19:02:51.379Z,2.1
2022-09-05T19:04:40.651Z,1.9
2022-09-05T19:06:37.986Z,2.4
2022-09-05T19:12:53.524Z,1.8
2022-09-05T19:14:45.694Z,2.2
2022-09-05T19:20:49.903Z,2.1
2022-09-05T19:23:09.969Z,2.3
2022-09-05T19:24:56.094Z,2.3
2022-09-05T19:28:57.101Z,2.7
2022-09-05T19:36:56.310Z,2.1
2022-09-05T19:36:59.471Z,1.9
2022-09-05T19:37:09.041Z,3.2
2022-09-05T19:37:13.414Z,1.7
2022-09-05T19:37:23.969Z,2.2
2022-09-05T19:41:42.917Z,1.6
2022-09-05T19:47:28.293Z,1.9
2022-09-05T19:47:42.239Z,1.9
2022-09-05T19:47:51.482Z,2.3
2022-09-05T19:48:17.975Z,2
2022-09-05T19:52:23.325Z,1.4
2022-09-05T19:54:24.732Z,2
2022-09-05T19:56:26.077Z,1.8
2022-09-05T19:58:27.465Z,2.1
2022-09-05T20:02:30.386Z,1.9
2022-09-05T20:06:36.521Z,2
2022-09-05T20:08:37.971Z,1.6
2022-09-05T20:10:39.460Z,1.8
2022-09-05T20:18:45.247Z,1.2
2022-09-05T20:26:54.367Z,1.6
2022-09-05T20:28:55.815Z,2.2
2022-09-05T20:38:02.027Z,1.9
2022-09-05T20:43:11.115Z,1.5
2022-09-05T20:48:14.545Z,2.8
2022-09-05T20:56:25.440Z,1.6
2022-09-05T20:58:31.202Z,1.4
2022-09-05T21:00:28.249Z,1.9
2022-09-05T21:02:33.394Z,1.6
2022-09-05T21:04:34.465Z,1.5
2022-09-05T21:06:35.928Z,1.2
2022-09-05T21:08:37.256Z,1.4
2022-09-05T21:10:54.721Z,1.7
2022-09-05T21:12:40.051Z,1.7
2022-09-05T21:14:41.390Z,2.1
2022-09-05T21:16:46.030Z,1.9
2022-09-05T21:18:47.276Z,1.5
2022-09-05T21:20:48.709Z,1.4
2022-09-05T21:22:50.135Z,1.5
2022-09-05T21:24:51.519Z,1.7
2022-09-05T21:26:52.863Z,1.9
2022-09-05T21:28:54.273Z,1
2022-09-05T21:30:58.922Z,2.2
2022-09-05T21:33:00.295Z,1.7
2022-09-05T21:35:01.621Z,1.2
2022-09-05T21:36:03.866Z,2.1
2022-09-05T21:40:06.625Z,2.1
2022-09-05T21:42:54.791Z,1.8
2022-09-05T21:47:34.623Z,1.6
2022-09-05T21:47:48.431Z,1.9
2022-09-05T21:48:15.431Z,1.5
2022-09-05T21:50:30.505Z,1.7
2022-09-05T21:52:17.855Z,2.1
2022-09-05T21:59:18.297Z,1.3
2022-09-05T21:59:32.589Z,1.5
2022-09-05T21:59:36.494Z,1.3
2022-09-05T22:00:26.650Z,1.9
2022-09-05T22:02:28.126Z,1.5
2022-09-05T22:04:29.471Z,1.8
2022-09-05T22:06:30.817Z,1.6
2022-09-05T22:08:32.132Z,1.7
2022-09-05T22:10:35.683Z,1.5
2022-09-05T22:12:37.964Z,1.8
2022-09-05T22:14:39.263Z,3
2022-09-05T22:16:44.934Z,2
2022-09-05T22:18:41.981Z,1.9
2022-09-05T22:22:55.602Z,1.8
2022-09-05T22:24:45.988Z,1.8
2022-09-05T22:27:10.869Z,2.5
2022-09-05T22:28:51.918Z,3.7
2022-09-05T22:30:53.358Z,2.2
2022-09-05T22:33:21.905Z,3
2022-09-05T22:37:24.625Z,2.9
2022-09-05T22:39:37.879Z,3
2022-09-05T22:41:31.125Z,2.9
2022-09-05T22:47:34.488Z,2.5
2022-09-05T22:49:35.829Z,2.7
2022-09-05T22:51:37.242Z,2.5
2022-09-05T22:53:41.831Z,2.3
2022-09-05T22:55:43.542Z,2.3
2022-09-05T22:57:44.598Z,2.6
2022-09-05T22:59:46.037Z,2.6
2022-09-05T23:01:47.497Z,2.2
2022-09-05T23:05:50.147Z,3.2
2022-09-05T23:07:54.916Z,2.4
2022-09-05T23:09:56.346Z,2.3
2022-09-05T23:11:57.695Z,2.4
2022-09-05T23:13:59.097Z,3
2022-09-05T23:16:00.522Z,2.7
2022-09-05T23:20:03.236Z,2.6
2022-09-05T23:22:07.788Z,3.3
2022-09-05T23:24:09.222Z,2.4
2022-09-05T23:26:10.670Z,2.6
2022-09-05T23:27:13.023Z,2.3
2022-09-05T23:29:14.433Z,2.9
2022-09-05T23:31:15.896Z,3.2
2022-09-05T23:33:17.166Z,2.6
2022-09-05T23:35:21.860Z,3.1
2022-09-05T23:37:23.245Z,3
2022-09-05T23:39:24.709Z,3.3
2022-09-05T23:41:25.998Z,3.9
2022-09-05T23:43:27.306Z,2.4
2022-09-05T23:45:28.672Z,2.9
2022-09-05T23:47:30.096Z,2.8
2022-09-05T23:49:34.727Z,3.3
2022-09-05T23:51:36.149Z,3
2022-09-05T23:53:37.568Z,3.3
2022-09-05T23:55:38.879Z,2.7
2022-09-05T23:57:40.220Z,2.5
